Dothan, West Virginia
Current Conditions -  °F | °C
As of 4:51 AM on Monday 22 Dec 2014 (Local Time) from KBKW Reporting Station
Overcast Overcast  
Wind Chill: 28°   Ceiling: 6000
Heat Index: 36°   Visibility: 10mi
Dew Point: 30°   Wind: 12mph
Humidity: 79%   Direction: 140°SE
Pressure: 30.07"   Gusts: NA
Location:  37.97°N, 81.22°W
Report Text: KBKW 220951Z AUTO 14010KT 10SM OVC060 02/M01 A3007 RMK AO2 SLP198 T00221011 $
Loading
Personal Weather Stations






























Interactive Weather Map New forecast layout! Learn more

10-Day Weather Forecast

Advertisements
Track Severe Weather on mobile